Imperial Beach, CA (91933)

6:40 PM PDT on July 28, 2016 (GMT -0700)
KCAIMPER2 | | Change Station

Elev 14 ft 32.58 °N, 117.13 °W | Updated 11 minutes ago

Scattered Clouds
Scattered Clouds
73.5 °F
Feels Like 73 °F
N
9.0
Wind Variable Wind from WNW
Gusts 9.0 mph

Today
High -- | Low -- °F
--% Chance of Precip.
Yesterday
High -- | Low -- °F
Precip. -- in
Pressure 29.84 in
Visibility 10.0 miles
Clouds Few 2000 ft
Few 15000 ft
Scattered Clouds 25000 ft
Heat Index 73 °F
Dew Point 68 °F
Humidity 82%
Rainfall in
Snow Depth Not available.
6:00 AM 7:49 PM
Waning Crescent, 27% visible
METAR KNRS 290056Z 30007KT 10SM FEW020 FEW150 SCT250 26/19 A2984 RMK AO2 SLP104 T02560194 $
Pressure 29.84 in
Visibility 10.0 miles
Clouds Few 2000 ft
Few 15000 ft
Scattered Clouds 25000 ft
Heat Index 73 °F
Dew Point 68 °F
Humidity 82%
Rainfall in
Snow Depth Not available.
6:00 AM 7:49 PM
Waning Crescent, 27% visible
METAR KNRS 290056Z 30007KT 10SM FEW020 FEW150 SCT250 26/19 A2984 RMK AO2 SLP104 T02560194 $

10-Day Weather Forecast

Almanac

Astronomy

Jul. 28, 2016 Rise Set
Actual Time
Civil Twilight
Nautical Twilight
Astronomical Twilight
Moon
Length of Visible Light
Length of Day
Tomorrow will be .
, % of the Moon is Illuminated

Today's Extremes

State Highs State Lows

Community

WunderPhotos

Upload Photos

1,928,251 photos uploaded!

WunderBlog® & News

Nearby

Air Quality

  Air Quality AQ Index Pollutant
Not available.

Snow Depth

Station Depth Elevation

Earthquake Activity

City Distance Mag. Time & Date
Minimum magnitude displayed is 2.5.

Coastal Water Temperatures

Place Temperature

Stations

Nearby Weather Stations

Station Location Temp. Windchill Dew Point Humidity Wind Precip. Elev Updated Type
                   

Watches & Warnings

There are currently no watches in effect.